sensor_id;sensor_type;location;lat;lon;timestamp;P1;durP1;ratioP1;P2;durP2;ratioP2
79670;SDS011;69137;50.878;8.050;2023-12-22T00:00:16;10.40;;;1.60;;
79670;SDS011;69137;50.878;8.050;2023-12-22T00:02:41;3.80;;;1.40;;
79670;SDS011;69137;50.878;8.050;2023-12-22T00:05:07;2.83;;;0.80;;
79670;SDS011;69137;50.878;8.050;2023-12-22T00:07:32;3.10;;;1.35;;
79670;SDS011;69137;50.878;8.050;2023-12-22T00:09:57;10.60;;;1.77;;
79670;SDS011;69137;50.878;8.050;2023-12-22T00:12:23;2.57;;;0.77;;
79670;SDS011;69137;50.878;8.050;2023-12-22T00:14:48;5.23;;;1.20;;
79670;SDS011;69137;50.878;8.050;2023-12-22T00:17:13;4.50;;;1.13;;
79670;SDS011;69137;50.878;8.050;2023-12-22T00:19:38;3.50;;;1.17;;
79670;SDS011;69137;50.878;8.050;2023-12-22T00:22:04;2.63;;;0.97;;
79670;SDS011;69137;50.878;8.050;2023-12-22T00:24:29;1.93;;;0.63;;
79670;SDS011;69137;50.878;8.050;2023-12-22T00:26:55;4.57;;;1.00;;
79670;SDS011;69137;50.878;8.050;2023-12-22T00:29:20;4.43;;;0.70;;
79670;SDS011;69137;50.878;8.050;2023-12-22T00:31:45;1.70;;;0.57;;
79670;SDS011;69137;50.878;8.050;2023-12-22T00:34:11;1.37;;;0.77;;
79670;SDS011;69137;50.878;8.050;2023-12-22T00:36:36;0.80;;;0.60;;
79670;SDS011;69137;50.878;8.050;2023-12-22T00:39:01;0.70;;;0.53;;
79670;SDS011;69137;50.878;8.050;2023-12-22T00:41:28;5.10;;;1.35;;
79670;SDS011;69137;50.878;8.050;2023-12-22T00:43:53;5.32;;;1.17;;
79670;SDS011;69137;50.878;8.050;2023-12-22T00:46:18;6.80;;;0.80;;
79670;SDS011;69137;50.878;8.050;2023-12-22T00:48:45;3.95;;;0.88;;
79670;SDS011;69137;50.878;8.050;2023-12-22T00:51:10;3.13;;;0.85;;
79670;SDS011;69137;50.878;8.050;2023-12-22T00:53:35;5.93;;;0.83;;
79670;SDS011;69137;50.878;8.050;2023-12-22T00:56:01;2.40;;;0.97;;
79670;SDS011;69137;50.878;8.050;2023-12-22T00:58:27;4.68;;;1.23;;
79670;SDS011;69137;50.878;8.050;2023-12-22T01:00:53;3.70;;;0.90;;
79670;SDS011;69137;50.878;8.050;2023-12-22T01:03:19;4.60;;;1.00;;
79670;SDS011;69137;50.878;8.050;2023-12-22T01:05:44;5.43;;;2.03;;
79670;SDS011;69137;50.878;8.050;2023-12-22T01:08:09;11.40;;;1.30;;
79670;SDS011;69137;50.878;8.050;2023-12-22T01:10:35;6.68;;;1.38;;
79670;SDS011;69137;50.878;8.050;2023-12-22T01:13:00;7.83;;;1.83;;
79670;SDS011;69137;50.878;8.050;2023-12-22T01:15:26;5.22;;;1.30;;
79670;SDS011;69137;50.878;8.050;2023-12-22T01:17:51;5.40;;;1.27;;
79670;SDS011;69137;50.878;8.050;2023-12-22T01:20:17;7.53;;;1.80;;
79670;SDS011;69137;50.878;8.050;2023-12-22T01:22:42;2.35;;;1.02;;
79670;SDS011;69137;50.878;8.050;2023-12-22T01:25:08;3.97;;;1.13;;
79670;SDS011;69137;50.878;8.050;2023-12-22T01:27:33;8.87;;;1.87;;
79670;SDS011;69137;50.878;8.050;2023-12-22T01:29:58;4.17;;;1.77;;
79670;SDS011;69137;50.878;8.050;2023-12-22T01:32:24;8.67;;;1.43;;
79670;SDS011;69137;50.878;8.050;2023-12-22T01:34:49;6.53;;;1.33;;
79670;SDS011;69137;50.878;8.050;2023-12-22T01:37:14;6.68;;;1.60;;
79670;SDS011;69137;50.878;8.050;2023-12-22T01:39:40;4.97;;;1.10;;
79670;SDS011;69137;50.878;8.050;2023-12-22T01:42:05;4.63;;;1.13;;
79670;SDS011;69137;50.878;8.050;2023-12-22T01:44:30;6.10;;;1.15;;
79670;SDS011;69137;50.878;8.050;2023-12-22T01:46:56;3.58;;;1.40;;
79670;SDS011;69137;50.878;8.050;2023-12-22T01:49:21;2.47;;;0.98;;
79670;SDS011;69137;50.878;8.050;2023-12-22T01:51:47;4.80;;;1.25;;
79670;SDS011;69137;50.878;8.050;2023-12-22T01:54:14;2.85;;;1.10;;
79670;SDS011;69137;50.878;8.050;2023-12-22T01:56:43;3.22;;;0.80;;
79670;SDS011;69137;50.878;8.050;2023-12-22T01:59:08;4.17;;;1.30;;
79670;SDS011;69137;50.878;8.050;2023-12-22T02:01:35;7.75;;;1.45;;
79670;SDS011;69137;50.878;8.050;2023-12-22T02:04:00;1.63;;;0.93;;
79670;SDS011;69137;50.878;8.050;2023-12-22T02:06:27;2.95;;;0.90;;
79670;SDS011;69137;50.878;8.050;2023-12-22T02:08:55;4.15;;;1.20;;
79670;SDS011;69137;50.878;8.050;2023-12-22T02:11:22;5.88;;;1.40;;
79670;SDS011;69137;50.878;8.050;2023-12-22T02:13:47;5.30;;;1.00;;
79670;SDS011;69137;50.878;8.050;2023-12-22T02:16:18;2.85;;;1.20;;
79670;SDS011;69137;50.878;8.050;2023-12-22T02:18:51;2.55;;;0.90;;
79670;SDS011;69137;50.878;8.050;2023-12-22T02:21:20;4.55;;;1.45;;
79670;SDS011;69137;50.878;8.050;2023-12-22T02:23:47;3.17;;;1.07;;
79670;SDS011;69137;50.878;8.050;2023-12-22T02:26:14;6.20;;;0.90;;
79670;SDS011;69137;50.878;8.050;2023-12-22T02:28:59;0.60;;;0.50;;
79670;SDS011;69137;50.878;8.050;2023-12-22T02:31:36;7.53;;;1.63;;
79670;SDS011;69137;50.878;8.050;2023-12-22T02:34:10;1.42;;;0.65;;
79670;SDS011;69137;50.878;8.050;2023-12-22T02:36:39;3.78;;;0.68;;
79670;SDS011;69137;50.878;8.050;2023-12-22T02:39:06;6.90;;;1.10;;
79670;SDS011;69137;50.878;8.050;2023-12-22T02:41:32;2.92;;;0.63;;
79670;SDS011;69137;50.878;8.050;2023-12-22T02:43:58;10.00;;;1.17;;
79670;SDS011;69137;50.878;8.050;2023-12-22T02:46:24;2.60;;;1.08;;
79670;SDS011;69137;50.878;8.050;2023-12-22T02:48:49;0.93;;;0.60;;
79670;SDS011;69137;50.878;8.050;2023-12-22T02:51:15;1.23;;;0.40;;
79670;SDS011;69137;50.878;8.050;2023-12-22T02:53:40;1.30;;;0.63;;
79670;SDS011;69137;50.878;8.050;2023-12-22T02:56:05;5.23;;;0.63;;
79670;SDS011;69137;50.878;8.050;2023-12-22T02:58:31;1.25;;;0.80;;
79670;SDS011;69137;50.878;8.050;2023-12-22T03:00:56;1.30;;;0.40;;
79670;SDS011;69137;50.878;8.050;2023-12-22T03:03:21;0.77;;;0.67;;
79670;SDS011;69137;50.878;8.050;2023-12-22T03:05:47;1.33;;;0.50;;
79670;SDS011;69137;50.878;8.050;2023-12-22T03:08:12;0.97;;;0.43;;
79670;SDS011;69137;50.878;8.050;2023-12-22T03:10:37;0.20;;;0.20;;
79670;SDS011;69137;50.878;8.050;2023-12-22T03:13:03;2.23;;;1.07;;
79670;SDS011;69137;50.878;8.050;2023-12-22T03:15:28;3.33;;;0.90;;
79670;SDS011;69137;50.878;8.050;2023-12-22T03:17:53;0.60;;;0.60;;
79670;SDS011;69137;50.878;8.050;2023-12-22T03:20:18;0.23;;;0.23;;
79670;SDS011;69137;50.878;8.050;2023-12-22T03:22:44;2.13;;;0.67;;
79670;SDS011;69137;50.878;8.050;2023-12-22T03:25:09;0.53;;;0.53;;
79670;SDS011;69137;50.878;8.050;2023-12-22T03:27:34;0.52;;;0.52;;
79670;SDS011;69137;50.878;8.050;2023-12-22T03:29:59;3.90;;;0.53;;
79670;SDS011;69137;50.878;8.050;2023-12-22T03:32:26;1.25;;;0.50;;
79670;SDS011;69137;50.878;8.050;2023-12-22T03:34:52;1.07;;;0.43;;
79670;SDS011;69137;50.878;8.050;2023-12-22T03:37:17;1.17;;;0.67;;
79670;SDS011;69137;50.878;8.050;2023-12-22T03:39:42;1.83;;;0.90;;
79670;SDS011;69137;50.878;8.050;2023-12-22T03:42:07;0.30;;;0.30;;
79670;SDS011;69137;50.878;8.050;2023-12-22T03:44:33;0.93;;;0.50;;
79670;SDS011;69137;50.878;8.050;2023-12-22T03:46:58;1.03;;;0.47;;
79670;SDS011;69137;50.878;8.050;2023-12-22T03:49:23;4.80;;;1.47;;
79670;SDS011;69137;50.878;8.050;2023-12-22T03:51:48;3.20;;;1.03;;
79670;SDS011;69137;50.878;8.050;2023-12-22T03:54:14;0.20;;;0.20;;
79670;SDS011;69137;50.878;8.050;2023-12-22T03:56:42;3.28;;;0.90;;
79670;SDS011;69137;50.878;8.050;2023-12-22T03:59:07;0.50;;;0.50;;
79670;SDS011;69137;50.878;8.050;2023-12-22T04:01:32;1.17;;;0.83;;
79670;SDS011;69137;50.878;8.050;2023-12-22T04:03:58;0.70;;;0.57;;
79670;SDS011;69137;50.878;8.050;2023-12-22T04:06:23;3.33;;;0.87;;
79670;SDS011;69137;50.878;8.050;2023-12-22T04:08:48;2.38;;;0.40;;
79670;SDS011;69137;50.878;8.050;2023-12-22T04:11:14;0.30;;;0.30;;
79670;SDS011;69137;50.878;8.050;2023-12-22T04:13:39;8.13;;;1.07;;
79670;SDS011;69137;50.878;8.050;2023-12-22T04:16:04;3.80;;;0.87;;
79670;SDS011;69137;50.878;8.050;2023-12-22T04:18:30;1.80;;;0.82;;
79670;SDS011;69137;50.878;8.050;2023-12-22T04:20:56;2.80;;;0.82;;
79670;SDS011;69137;50.878;8.050;2023-12-22T04:23:21;2.93;;;0.40;;
79670;SDS011;69137;50.878;8.050;2023-12-22T04:25:47;2.65;;;0.90;;
79670;SDS011;69137;50.878;8.050;2023-12-22T04:28:12;1.35;;;0.52;;
79670;SDS011;69137;50.878;8.050;2023-12-22T04:30:38;1.70;;;0.83;;
79670;SDS011;69137;50.878;8.050;2023-12-22T04:33:03;0.50;;;0.50;;
79670;SDS011;69137;50.878;8.050;2023-12-22T04:35:28;0.45;;;0.43;;
79670;SDS011;69137;50.878;8.050;2023-12-22T04:37:54;1.03;;;0.63;;
79670;SDS011;69137;50.878;8.050;2023-12-22T04:40:19;1.90;;;0.85;;
79670;SDS011;69137;50.878;8.050;2023-12-22T04:42:45;2.07;;;0.30;;
79670;SDS011;69137;50.878;8.050;2023-12-22T04:45:10;1.27;;;0.80;;
79670;SDS011;69137;50.878;8.050;2023-12-22T04:47:35;0.40;;;0.40;;
79670;SDS011;69137;50.878;8.050;2023-12-22T04:50:00;1.90;;;1.00;;
79670;SDS011;69137;50.878;8.050;2023-12-22T04:52:26;2.47;;;1.00;;
79670;SDS011;69137;50.878;8.050;2023-12-22T04:54:51;1.27;;;0.87;;
79670;SDS011;69137;50.878;8.050;2023-12-22T04:57:16;8.70;;;1.50;;
79670;SDS011;69137;50.878;8.050;2023-12-22T04:59:42;1.37;;;0.77;;
79670;SDS011;69137;50.878;8.050;2023-12-22T05:02:07;4.97;;;0.97;;
79670;SDS011;69137;50.878;8.050;2023-12-22T05:04:32;7.40;;;1.20;;
79670;SDS011;69137;50.878;8.050;2023-12-22T05:06:57;7.57;;;2.30;;
79670;SDS011;69137;50.878;8.050;2023-12-22T05:09:23;5.20;;;1.42;;
79670;SDS011;69137;50.878;8.050;2023-12-22T05:11:50;3.17;;;1.65;;
79670;SDS011;69137;50.878;8.050;2023-12-22T05:14:15;7.05;;;1.52;;
79670;SDS011;69137;50.878;8.050;2023-12-22T05:16:40;8.63;;;2.70;;
79670;SDS011;69137;50.878;8.050;2023-12-22T05:19:06;6.30;;;2.20;;
79670;SDS011;69137;50.878;8.050;2023-12-22T05:21:31;4.00;;;1.93;;
79670;SDS011;69137;50.878;8.050;2023-12-22T05:23:56;9.43;;;2.30;;
79670;SDS011;69137;50.878;8.050;2023-12-22T05:26:22;9.30;;;1.87;;
79670;SDS011;69137;50.878;8.050;2023-12-22T05:28:48;3.42;;;1.80;;
79670;SDS011;69137;50.878;8.050;2023-12-22T05:31:16;13.95;;;2.45;;
79670;SDS011;69137;50.878;8.050;2023-12-22T05:33:42;9.15;;;1.80;;
79670;SDS011;69137;50.878;8.050;2023-12-22T05:36:08;7.80;;;1.80;;
79670;SDS011;69137;50.878;8.050;2023-12-22T05:38:37;15.43;;;2.45;;
79670;SDS011;69137;50.878;8.050;2023-12-22T05:41:03;9.50;;;2.47;;
79670;SDS011;69137;50.878;8.050;2023-12-22T05:43:28;4.23;;;1.33;;
79670;SDS011;69137;50.878;8.050;2023-12-22T05:45:53;6.97;;;2.53;;
79670;SDS011;69137;50.878;8.050;2023-12-22T05:48:18;12.40;;;2.37;;
79670;SDS011;69137;50.878;8.050;2023-12-22T05:50:46;5.30;;;1.67;;
79670;SDS011;69137;50.878;8.050;2023-12-22T05:53:12;4.07;;;1.33;;
79670;SDS011;69137;50.878;8.050;2023-12-22T05:55:37;6.27;;;1.60;;
79670;SDS011;69137;50.878;8.050;2023-12-22T05:58:03;5.53;;;2.03;;
79670;SDS011;69137;50.878;8.050;2023-12-22T06:00:28;5.07;;;1.95;;
79670;SDS011;69137;50.878;8.050;2023-12-22T06:02:53;6.37;;;1.67;;
79670;SDS011;69137;50.878;8.050;2023-12-22T06:05:18;12.23;;;2.23;;
79670;SDS011;69137;50.878;8.050;2023-12-22T06:07:44;8.43;;;1.53;;
79670;SDS011;69137;50.878;8.050;2023-12-22T06:10:09;3.70;;;0.90;;
79670;SDS011;69137;50.878;8.050;2023-12-22T06:12:35;1.77;;;1.05;;
79670;SDS011;69137;50.878;8.050;2023-12-22T06:15:01;5.63;;;1.50;;
79670;SDS011;69137;50.878;8.050;2023-12-22T06:17:26;3.47;;;1.25;;
79670;SDS011;69137;50.878;8.050;2023-12-22T06:19:51;2.57;;;1.40;;
79670;SDS011;69137;50.878;8.050;2023-12-22T06:22:17;1.90;;;1.10;;
79670;SDS011;69137;50.878;8.050;2023-12-22T06:24:42;1.70;;;1.07;;
79670;SDS011;69137;50.878;8.050;2023-12-22T06:27:08;5.07;;;1.50;;
79670;SDS011;69137;50.878;8.050;2023-12-22T06:29:33;2.40;;;1.00;;
79670;SDS011;69137;50.878;8.050;2023-12-22T06:31:59;0.85;;;0.73;;
79670;SDS011;69137;50.878;8.050;2023-12-22T06:34:24;1.77;;;0.85;;
79670;SDS011;69137;50.878;8.050;2023-12-22T06:36:50;3.53;;;1.15;;
79670;SDS011;69137;50.878;8.050;2023-12-22T06:39:16;2.58;;;0.82;;
79670;SDS011;69137;50.878;8.050;2023-12-22T06:41:41;1.57;;;0.80;;
79670;SDS011;69137;50.878;8.050;2023-12-22T06:44:06;6.77;;;1.80;;
79670;SDS011;69137;50.878;8.050;2023-12-22T06:46:32;7.10;;;1.50;;
79670;SDS011;69137;50.878;8.050;2023-12-22T06:48:57;7.93;;;1.50;;
79670;SDS011;69137;50.878;8.050;2023-12-22T06:51:27;2.17;;;0.98;;
79670;SDS011;69137;50.878;8.050;2023-12-22T06:53:55;5.90;;;1.63;;
79670;SDS011;69137;50.878;8.050;2023-12-22T06:56:24;3.42;;;1.27;;
79670;SDS011;69137;50.878;8.050;2023-12-22T06:58:50;1.38;;;0.90;;
79670;SDS011;69137;50.878;8.050;2023-12-22T07:01:17;5.28;;;1.95;;
79670;SDS011;69137;50.878;8.050;2023-12-22T07:03:44;3.80;;;1.48;;
79670;SDS011;69137;50.878;8.050;2023-12-22T07:06:10;6.03;;;1.63;;
79670;SDS011;69137;50.878;8.050;2023-12-22T07:08:35;4.20;;;1.73;;
79670;SDS011;69137;50.878;8.050;2023-12-22T07:11:00;13.90;;;2.33;;
79670;SDS011;69137;50.878;8.050;2023-12-22T07:13:26;6.13;;;2.10;;
79670;SDS011;69137;50.878;8.050;2023-12-22T07:15:51;2.75;;;1.25;;
79670;SDS011;69137;50.878;8.050;2023-12-22T07:18:16;2.90;;;1.63;;
79670;SDS011;69137;50.878;8.050;2023-12-22T07:20:42;3.73;;;1.70;;
79670;SDS011;69137;50.878;8.050;2023-12-22T07:23:09;13.67;;;1.50;;
79670;SDS011;69137;50.878;8.050;2023-12-22T07:25:36;5.18;;;1.88;;
79670;SDS011;69137;50.878;8.050;2023-12-22T07:28:03;5.38;;;2.08;;
79670;SDS011;69137;50.878;8.050;2023-12-22T07:30:29;11.07;;;1.73;;
79670;SDS011;69137;50.878;8.050;2023-12-22T07:32:54;6.00;;;2.13;;
79670;SDS011;69137;50.878;8.050;2023-12-22T07:35:19;3.33;;;1.23;;
79670;SDS011;69137;50.878;8.050;2023-12-22T07:37:45;14.87;;;2.40;;
79670;SDS011;69137;50.878;8.050;2023-12-22T07:40:10;15.23;;;2.20;;
79670;SDS011;69137;50.878;8.050;2023-12-22T07:42:36;8.52;;;3.03;;
79670;SDS011;69137;50.878;8.050;2023-12-22T07:45:01;9.80;;;3.15;;
79670;SDS011;69137;50.878;8.050;2023-12-22T07:47:28;13.20;;;4.47;;
79670;SDS011;69137;50.878;8.050;2023-12-22T07:49:53;17.80;;;4.97;;
79670;SDS011;69137;50.878;8.050;2023-12-22T07:52:18;16.07;;;4.70;;
79670;SDS011;69137;50.878;8.050;2023-12-22T07:54:44;13.77;;;3.20;;
79670;SDS011;69137;50.878;8.050;2023-12-22T07:57:09;18.13;;;3.43;;
79670;SDS011;69137;50.878;8.050;2023-12-22T07:59:35;14.73;;;2.85;;
79670;SDS011;69137;50.878;8.050;2023-12-22T08:02:00;13.10;;;3.23;;
79670;SDS011;69137;50.878;8.050;2023-12-22T08:04:25;17.40;;;3.53;;
79670;SDS011;69137;50.878;8.050;2023-12-22T08:06:51;10.20;;;3.55;;
79670;SDS011;69137;50.878;8.050;2023-12-22T08:09:17;13.27;;;3.70;;
79670;SDS011;69137;50.878;8.050;2023-12-22T08:11:44;10.23;;;3.63;;
79670;SDS011;69137;50.878;8.050;2023-12-22T08:14:12;13.15;;;3.25;;
79670;SDS011;69137;50.878;8.050;2023-12-22T08:16:37;9.20;;;2.42;;
79670;SDS011;69137;50.878;8.050;2023-12-22T08:19:02;11.77;;;2.90;;
79670;SDS011;69137;50.878;8.050;2023-12-22T08:21:27;15.53;;;4.10;;
79670;SDS011;69137;50.878;8.050;2023-12-22T08:23:53;6.25;;;2.42;;
79670;SDS011;69137;50.878;8.050;2023-12-22T08:26:18;8.50;;;3.00;;
79670;SDS011;69137;50.878;8.050;2023-12-22T08:28:44;7.57;;;3.22;;
79670;SDS011;69137;50.878;8.050;2023-12-22T08:31:09;10.13;;;2.35;;
79670;SDS011;69137;50.878;8.050;2023-12-22T08:33:35;16.50;;;3.17;;
79670;SDS011;69137;50.878;8.050;2023-12-22T08:36:00;9.70;;;2.70;;
79670;SDS011;69137;50.878;8.050;2023-12-22T08:38:25;11.73;;;3.37;;
79670;SDS011;69137;50.878;8.050;2023-12-22T08:40:51;10.57;;;2.85;;
79670;SDS011;69137;50.878;8.050;2023-12-22T08:43:19;8.95;;;1.60;;
79670;SDS011;69137;50.878;8.050;2023-12-22T08:45:44;9.77;;;2.13;;
79670;SDS011;69137;50.878;8.050;2023-12-22T08:48:10;5.50;;;1.93;;
79670;SDS011;69137;50.878;8.050;2023-12-22T08:50:35;8.07;;;2.10;;
79670;SDS011;69137;50.878;8.050;2023-12-22T08:53:01;6.63;;;2.33;;
79670;SDS011;69137;50.878;8.050;2023-12-22T08:55:26;8.83;;;2.33;;
79670;SDS011;69137;50.878;8.050;2023-12-22T08:57:51;6.78;;;2.15;;
79670;SDS011;69137;50.878;8.050;2023-12-22T09:00:17;4.07;;;1.63;;
79670;SDS011;69137;50.878;8.050;2023-12-22T09:02:43;12.30;;;2.20;;
79670;SDS011;69137;50.878;8.050;2023-12-22T09:05:09;4.50;;;1.83;;
79670;SDS011;69137;50.878;8.050;2023-12-22T09:07:34;10.63;;;2.27;;
79670;SDS011;69137;50.878;8.050;2023-12-22T09:09:59;4.73;;;2.30;;
79670;SDS011;69137;50.878;8.050;2023-12-22T09:12:25;12.40;;;3.17;;
79670;SDS011;69137;50.878;8.050;2023-12-22T09:14:50;7.78;;;2.00;;
79670;SDS011;69137;50.878;8.050;2023-12-22T09:17:16;4.33;;;2.17;;
79670;SDS011;69137;50.878;8.050;2023-12-22T09:19:41;7.97;;;1.97;;
79670;SDS011;69137;50.878;8.050;2023-12-22T09:22:07;11.15;;;3.97;;
79670;SDS011;69137;50.878;8.050;2023-12-22T09:24:33;7.53;;;2.65;;
79670;SDS011;69137;50.878;8.050;2023-12-22T09:26:58;10.67;;;2.53;;
79670;SDS011;69137;50.878;8.050;2023-12-22T09:29:27;5.15;;;2.85;;
79670;SDS011;69137;50.878;8.050;2023-12-22T09:31:58;10.18;;;2.92;;
79670;SDS011;69137;50.878;8.050;2023-12-22T09:34:25;8.50;;;2.60;;
79670;SDS011;69137;50.878;8.050;2023-12-22T09:36:51;7.20;;;4.13;;
79670;SDS011;69137;50.878;8.050;2023-12-22T09:39:17;15.87;;;4.70;;
79670;SDS011;69137;50.878;8.050;2023-12-22T09:41:47;11.77;;;4.20;;
79670;SDS011;69137;50.878;8.050;2023-12-22T09:44:14;15.63;;;4.22;;
79670;SDS011;69137;50.878;8.050;2023-12-22T09:46:44;11.68;;;4.18;;
79670;SDS011;69137;50.878;8.050;2023-12-22T09:49:11;12.38;;;3.40;;
79670;SDS011;69137;50.878;8.050;2023-12-22T09:51:37;14.10;;;4.07;;
79670;SDS011;69137;50.878;8.050;2023-12-22T09:54:03;17.33;;;5.20;;
79670;SDS011;69137;50.878;8.050;2023-12-22T09:56:29;19.98;;;4.13;;
79670;SDS011;69137;50.878;8.050;2023-12-22T09:58:56;23.48;;;4.72;;
79670;SDS011;69137;50.878;8.050;2023-12-22T10:01:21;13.73;;;4.50;;
79670;SDS011;69137;50.878;8.050;2023-12-22T10:03:48;8.48;;;3.47;;
79670;SDS011;69137;50.878;8.050;2023-12-22T10:06:14;19.95;;;6.95;;
79670;SDS011;69137;50.878;8.050;2023-12-22T10:08:42;19.73;;;5.22;;
79670;SDS011;69137;50.878;8.050;2023-12-22T10:11:08;21.38;;;7.43;;
79670;SDS011;69137;50.878;8.050;2023-12-22T10:13:34;17.88;;;7.22;;
79670;SDS011;69137;50.878;8.050;2023-12-22T10:16:01;26.60;;;12.07;;
79670;SDS011;69137;50.878;8.050;2023-12-22T10:18:29;19.25;;;7.80;;
79670;SDS011;69137;50.878;8.050;2023-12-22T10:20:54;16.93;;;5.80;;
79670;SDS011;69137;50.878;8.050;2023-12-22T10:23:20;15.47;;;6.40;;
79670;SDS011;69137;50.878;8.050;2023-12-22T10:25:45;19.10;;;8.07;;
79670;SDS011;69137;50.878;8.050;2023-12-22T10:28:11;28.08;;;7.22;;
79670;SDS011;69137;50.878;8.050;2023-12-22T10:30:36;18.17;;;4.15;;
79670;SDS011;69137;50.878;8.050;2023-12-22T10:33:06;17.80;;;5.22;;
79670;SDS011;69137;50.878;8.050;2023-12-22T10:35:32;31.42;;;10.40;;
79670;SDS011;69137;50.878;8.050;2023-12-22T10:37:58;17.52;;;6.13;;
79670;SDS011;69137;50.878;8.050;2023-12-22T10:40:24;18.00;;;4.57;;
79670;SDS011;69137;50.878;8.050;2023-12-22T10:42:50;20.67;;;4.65;;
79670;SDS011;69137;50.878;8.050;2023-12-22T10:45:17;16.75;;;5.90;;
79670;SDS011;69137;50.878;8.050;2023-12-22T10:47:43;16.08;;;4.35;;
79670;SDS011;69137;50.878;8.050;2023-12-22T10:50:09;18.02;;;5.43;;
79670;SDS011;69137;50.878;8.050;2023-12-22T10:52:37;20.58;;;4.78;;
79670;SDS011;69137;50.878;8.050;2023-12-22T10:55:02;15.13;;;3.90;;
79670;SDS011;69137;50.878;8.050;2023-12-22T10:57:27;12.60;;;5.10;;
79670;SDS011;69137;50.878;8.050;2023-12-22T10:59:53;9.10;;;3.70;;
79670;SDS011;69137;50.878;8.050;2023-12-22T11:02:22;22.15;;;4.25;;
79670;SDS011;69137;50.878;8.050;2023-12-22T11:04:52;10.25;;;2.95;;
79670;SDS011;69137;50.878;8.050;2023-12-22T11:07:32;9.55;;;3.53;;
79670;SDS011;69137;50.878;8.050;2023-12-22T11:10:02;12.35;;;4.38;;
79670;SDS011;69137;50.878;8.050;2023-12-22T11:12:28;16.17;;;4.15;;
79670;SDS011;69137;50.878;8.050;2023-12-22T11:14:56;10.35;;;3.17;;
79670;SDS011;69137;50.878;8.050;2023-12-22T11:17:22;16.35;;;4.47;;
79670;SDS011;69137;50.878;8.050;2023-12-22T11:19:49;11.43;;;3.00;;
79670;SDS011;69137;50.878;8.050;2023-12-22T11:22:16;10.48;;;3.33;;
79670;SDS011;69137;50.878;8.050;2023-12-22T11:24:43;8.10;;;3.83;;
79670;SDS011;69137;50.878;8.050;2023-12-22T11:27:12;8.60;;;2.88;;
79670;SDS011;69137;50.878;8.050;2023-12-22T11:29:38;10.45;;;3.67;;
79670;SDS011;69137;50.878;8.050;2023-12-22T11:32:05;9.00;;;3.03;;
79670;SDS011;69137;50.878;8.050;2023-12-22T11:34:32;6.05;;;2.80;;
79670;SDS011;69137;50.878;8.050;2023-12-22T11:36:59;14.45;;;3.15;;
79670;SDS011;69137;50.878;8.050;2023-12-22T11:39:26;8.30;;;3.25;;
79670;SDS011;69137;50.878;8.050;2023-12-22T11:41:53;5.22;;;2.95;;
79670;SDS011;69137;50.878;8.050;2023-12-22T11:44:20;9.73;;;3.13;;
79670;SDS011;69137;50.878;8.050;2023-12-22T11:46:46;11.07;;;2.85;;
79670;SDS011;69137;50.878;8.050;2023-12-22T11:49:12;8.73;;;3.42;;
79670;SDS011;69137;50.878;8.050;2023-12-22T11:51:37;4.25;;;2.33;;
79670;SDS011;69137;50.878;8.050;2023-12-22T11:54:04;6.28;;;3.28;;
79670;SDS011;69137;50.878;8.050;2023-12-22T11:56:49;1.98;;;1.33;;
79670;SDS011;69137;50.878;8.050;2023-12-22T11:59:16;2.65;;;1.20;;
79670;SDS011;69137;50.878;8.050;2023-12-22T12:01:41;4.00;;;2.15;;
79670;SDS011;69137;50.878;8.050;2023-12-22T12:04:07;5.40;;;2.47;;
79670;SDS011;69137;50.878;8.050;2023-12-22T12:06:33;7.38;;;2.28;;
79670;SDS011;69137;50.878;8.050;2023-12-22T12:09:00;6.05;;;2.47;;
79670;SDS011;69137;50.878;8.050;2023-12-22T12:14:32;6.35;;;3.25;;
79670;SDS011;69137;50.878;8.050;2023-12-22T12:17:05;2.50;;;1.73;;
79670;SDS011;69137;50.878;8.050;2023-12-22T12:19:38;3.15;;;2.08;;
79670;SDS011;69137;50.878;8.050;2023-12-22T12:22:06;2.70;;;1.40;;
79670;SDS011;69137;50.878;8.050;2023-12-22T12:24:32;2.28;;;1.40;;
79670;SDS011;69137;50.878;8.050;2023-12-22T12:26:57;2.77;;;1.60;;
79670;SDS011;69137;50.878;8.050;2023-12-22T12:29:22;1.52;;;1.35;;
79670;SDS011;69137;50.878;8.050;2023-12-22T12:31:48;2.58;;;1.73;;
79670;SDS011;69137;50.878;8.050;2023-12-22T12:34:14;5.47;;;2.23;;
79670;SDS011;69137;50.878;8.050;2023-12-22T12:36:41;1.98;;;1.17;;
79670;SDS011;69137;50.878;8.050;2023-12-22T12:39:07;3.00;;;2.07;;
79670;SDS011;69137;50.878;8.050;2023-12-22T12:41:39;3.55;;;2.20;;
79670;SDS011;69137;50.878;8.050;2023-12-22T12:44:06;10.23;;;6.30;;
79670;SDS011;69137;50.878;8.050;2023-12-22T12:46:35;3.90;;;2.38;;
79670;SDS011;69137;50.878;8.050;2023-12-22T12:49:09;7.55;;;3.33;;
79670;SDS011;69137;50.878;8.050;2023-12-22T12:51:43;6.22;;;3.72;;
79670;SDS011;69137;50.878;8.050;2023-12-22T12:54:10;8.93;;;5.72;;
79670;SDS011;69137;50.878;8.050;2023-12-22T12:56:37;12.52;;;3.95;;
79670;SDS011;69137;50.878;8.050;2023-12-22T12:59:10;5.18;;;2.97;;
79670;SDS011;69137;50.878;8.050;2023-12-22T13:01:38;6.50;;;2.90;;
79670;SDS011;69137;50.878;8.050;2023-12-22T13:04:04;4.55;;;2.10;;
79670;SDS011;69137;50.878;8.050;2023-12-22T13:06:29;6.50;;;2.50;;
79670;SDS011;69137;50.878;8.050;2023-12-22T13:08:55;6.93;;;2.10;;
79670;SDS011;69137;50.878;8.050;2023-12-22T13:11:24;6.43;;;2.57;;
79670;SDS011;69137;50.878;8.050;2023-12-22T13:13:52;5.40;;;2.92;;
79670;SDS011;69137;50.878;8.050;2023-12-22T13:16:21;8.68;;;3.08;;
79670;SDS011;69137;50.878;8.050;2023-12-22T13:18:51;3.13;;;2.25;;
79670;SDS011;69137;50.878;8.050;2023-12-22T13:21:17;9.85;;;3.67;;
79670;SDS011;69137;50.878;8.050;2023-12-22T13:23:42;4.65;;;3.08;;
79670;SDS011;69137;50.878;8.050;2023-12-22T13:26:17;3.27;;;2.30;;
79670;SDS011;69137;50.878;8.050;2023-12-22T13:28:45;4.00;;;1.98;;
79670;SDS011;69137;50.878;8.050;2023-12-22T13:31:11;3.05;;;1.70;;
79670;SDS011;69137;50.878;8.050;2023-12-22T13:33:39;3.42;;;1.60;;
79670;SDS011;69137;50.878;8.050;2023-12-22T13:36:05;2.55;;;1.58;;
79670;SDS011;69137;50.878;8.050;2023-12-22T13:38:31;5.28;;;2.00;;
79670;SDS011;69137;50.878;8.050;2023-12-22T13:40:56;4.90;;;2.38;;
79670;SDS011;69137;50.878;8.050;2023-12-22T13:43:22;6.00;;;1.98;;
79670;SDS011;69137;50.878;8.050;2023-12-22T13:45:50;2.47;;;1.70;;
79670;SDS011;69137;50.878;8.050;2023-12-22T13:48:16;5.55;;;1.63;;
79670;SDS011;69137;50.878;8.050;2023-12-22T13:50:41;5.53;;;1.98;;
79670;SDS011;69137;50.878;8.050;2023-12-22T13:53:07;6.30;;;2.53;;
79670;SDS011;69137;50.878;8.050;2023-12-22T13:55:34;5.60;;;2.38;;
79670;SDS011;69137;50.878;8.050;2023-12-22T13:58:02;4.65;;;2.05;;
79670;SDS011;69137;50.878;8.050;2023-12-22T14:00:31;3.28;;;1.98;;
79670;SDS011;69137;50.878;8.050;2023-12-22T14:02:57;5.15;;;2.10;;
79670;SDS011;69137;50.878;8.050;2023-12-22T14:05:23;5.22;;;2.65;;
79670;SDS011;69137;50.878;8.050;2023-12-22T14:07:48;5.82;;;1.90;;
79670;SDS011;69137;50.878;8.050;2023-12-22T14:10:14;13.00;;;4.38;;
79670;SDS011;69137;50.878;8.050;2023-12-22T14:12:40;3.25;;;1.83;;
79670;SDS011;69137;50.878;8.050;2023-12-22T14:15:09;4.57;;;2.17;;
79670;SDS011;69137;50.878;8.050;2023-12-22T14:17:35;5.60;;;2.10;;
79670;SDS011;69137;50.878;8.050;2023-12-22T14:20:01;3.33;;;2.17;;
79670;SDS011;69137;50.878;8.050;2023-12-22T14:22:27;2.28;;;1.63;;
79670;SDS011;69137;50.878;8.050;2023-12-22T14:24:52;3.00;;;1.90;;
79670;SDS011;69137;50.878;8.050;2023-12-22T14:27:18;2.97;;;1.58;;
79670;SDS011;69137;50.878;8.050;2023-12-22T14:29:46;5.47;;;2.00;;
79670;SDS011;69137;50.878;8.050;2023-12-22T14:32:12;2.90;;;1.55;;
79670;SDS011;69137;50.878;8.050;2023-12-22T14:34:39;8.77;;;2.00;;
79670;SDS011;69137;50.878;8.050;2023-12-22T14:37:05;5.80;;;2.10;;
79670;SDS011;69137;50.878;8.050;2023-12-22T14:39:30;2.50;;;1.83;;
79670;SDS011;69137;50.878;8.050;2023-12-22T14:41:56;4.97;;;1.98;;